sensor_id;sensor_type;location;lat;lon;timestamp;temperature;humidity
16797;DHT22;8515;51.064;4.580;2022-08-21T00:00:34;17.20;64.00
16797;DHT22;8515;51.064;4.580;2022-08-21T00:03:06;17.20;63.60
16797;DHT22;8515;51.064;4.580;2022-08-21T00:05:37;17.20;63.50
16797;DHT22;8515;51.064;4.580;2022-08-21T00:08:04;17.20;63.50
16797;DHT22;8515;51.064;4.580;2022-08-21T00:10:32;17.20;63.90
16797;DHT22;8515;51.064;4.580;2022-08-21T00:13:02;17.20;63.60
16797;DHT22;8515;51.064;4.580;2022-08-21T00:15:31;17.20;63.70
16797;DHT22;8515;51.064;4.580;2022-08-21T00:17:59;17.20;63.70
16797;DHT22;8515;51.064;4.580;2022-08-21T00:20:26;17.20;63.70
16797;DHT22;8515;51.064;4.580;2022-08-21T00:22:53;17.20;63.60
16797;DHT22;8515;51.064;4.580;2022-08-21T00:25:20;17.20;63.60
16797;DHT22;8515;51.064;4.580;2022-08-21T00:27:47;17.20;63.60
16797;DHT22;8515;51.064;4.580;2022-08-21T00:30:17;17.20;63.70
16797;DHT22;8515;51.064;4.580;2022-08-21T00:32:45;17.20;63.70
16797;DHT22;8515;51.064;4.580;2022-08-21T00:35:14;17.20;63.80
16797;DHT22;8515;51.064;4.580;2022-08-21T00:37:41;17.10;63.80
16797;DHT22;8515;51.064;4.580;2022-08-21T00:40:14;17.10;63.90
16797;DHT22;8515;51.064;4.580;2022-08-21T00:42:42;17.10;64.10
16797;DHT22;8515;51.064;4.580;2022-08-21T00:45:10;17.10;64.30
16797;DHT22;8515;51.064;4.580;2022-08-21T00:47:38;17.00;64.30
16797;DHT22;8515;51.064;4.580;2022-08-21T00:50:08;16.90;64.40
16797;DHT22;8515;51.064;4.580;2022-08-21T00:52:36;16.90;64.60
16797;DHT22;8515;51.064;4.580;2022-08-21T00:55:05;16.90;64.70
16797;DHT22;8515;51.064;4.580;2022-08-21T00:57:39;16.80;64.70
16797;DHT22;8515;51.064;4.580;2022-08-21T01:00:10;16.80;64.90
16797;DHT22;8515;51.064;4.580;2022-08-21T01:02:39;16.70;64.90
16797;DHT22;8515;51.064;4.580;2022-08-21T01:05:07;16.70;65.00
16797;DHT22;8515;51.064;4.580;2022-08-21T01:07:35;16.70;65.10
16797;DHT22;8515;51.064;4.580;2022-08-21T01:10:03;16.70;65.00
16797;DHT22;8515;51.064;4.580;2022-08-21T01:12:30;16.70;65.00
16797;DHT22;8515;51.064;4.580;2022-08-21T01:14:57;16.70;65.10
16797;DHT22;8515;51.064;4.580;2022-08-21T01:17:25;16.70;65.30
16797;DHT22;8515;51.064;4.580;2022-08-21T01:19:57;16.60;65.20
16797;DHT22;8515;51.064;4.580;2022-08-21T01:22:26;16.60;65.30
16797;DHT22;8515;51.064;4.580;2022-08-21T01:24:53;16.60;65.50
16797;DHT22;8515;51.064;4.580;2022-08-21T01:27:21;16.60;65.30
16797;DHT22;8515;51.064;4.580;2022-08-21T01:29:53;16.60;65.60
16797;DHT22;8515;51.064;4.580;2022-08-21T01:32:21;16.50;65.50
16797;DHT22;8515;51.064;4.580;2022-08-21T01:34:50;16.50;65.70
16797;DHT22;8515;51.064;4.580;2022-08-21T01:37:18;16.50;65.70
16797;DHT22;8515;51.064;4.580;2022-08-21T01:39:47;16.50;65.70
16797;DHT22;8515;51.064;4.580;2022-08-21T01:42:15;16.50;65.50
16797;DHT22;8515;51.064;4.580;2022-08-21T01:44:42;16.50;65.60
16797;DHT22;8515;51.064;4.580;2022-08-21T01:47:12;16.50;65.90
16797;DHT22;8515;51.064;4.580;2022-08-21T01:49:40;16.50;66.00
16797;DHT22;8515;51.064;4.580;2022-08-21T01:52:07;16.40;65.80
16797;DHT22;8515;51.064;4.580;2022-08-21T01:54:35;16.40;65.90
16797;DHT22;8515;51.064;4.580;2022-08-21T01:57:04;16.40;66.20
16797;DHT22;8515;51.064;4.580;2022-08-21T01:59:33;16.30;66.40
16797;DHT22;8515;51.064;4.580;2022-08-21T02:02:00;16.30;66.10
16797;DHT22;8515;51.064;4.580;2022-08-21T02:04:27;16.30;66.10
16797;DHT22;8515;51.064;4.580;2022-08-21T02:06:54;16.30;65.90
16797;DHT22;8515;51.064;4.580;2022-08-21T02:09:21;16.30;66.20
16797;DHT22;8515;51.064;4.580;2022-08-21T02:11:48;16.30;65.90
16797;DHT22;8515;51.064;4.580;2022-08-21T02:14:17;16.30;66.20
16797;DHT22;8515;51.064;4.580;2022-08-21T02:16:45;16.20;66.30
16797;DHT22;8515;51.064;4.580;2022-08-21T02:19:14;16.20;66.50
16797;DHT22;8515;51.064;4.580;2022-08-21T02:21:41;16.20;66.60
16797;DHT22;8515;51.064;4.580;2022-08-21T02:24:10;16.10;66.60
16797;DHT22;8515;51.064;4.580;2022-08-21T02:26:37;16.10;66.60
16797;DHT22;8515;51.064;4.580;2022-08-21T02:29:05;16.10;66.60
16797;DHT22;8515;51.064;4.580;2022-08-21T02:31:33;16.10;67.10
16797;DHT22;8515;51.064;4.580;2022-08-21T02:34:00;16.00;67.30
16797;DHT22;8515;51.064;4.580;2022-08-21T02:36:27;16.00;67.40
16797;DHT22;8515;51.064;4.580;2022-08-21T02:38:54;15.90;67.40
16797;DHT22;8515;51.064;4.580;2022-08-21T02:41:22;15.90;67.60
16797;DHT22;8515;51.064;4.580;2022-08-21T02:43:49;15.90;67.80
16797;DHT22;8515;51.064;4.580;2022-08-21T02:46:19;15.80;68.00
16797;DHT22;8515;51.064;4.580;2022-08-21T02:48:48;15.80;68.20
16797;DHT22;8515;51.064;4.580;2022-08-21T02:51:17;15.80;68.40
16797;DHT22;8515;51.064;4.580;2022-08-21T02:53:46;15.70;68.70
16797;DHT22;8515;51.064;4.580;2022-08-21T02:56:15;15.70;68.70
16797;DHT22;8515;51.064;4.580;2022-08-21T02:58:44;15.70;69.00
16797;DHT22;8515;51.064;4.580;2022-08-21T03:01:13;15.70;68.90
16797;DHT22;8515;51.064;4.580;2022-08-21T03:03:42;15.60;69.10
16797;DHT22;8515;51.064;4.580;2022-08-21T03:06:14;15.60;69.40
16797;DHT22;8515;51.064;4.580;2022-08-21T03:08:41;15.60;69.40
16797;DHT22;8515;51.064;4.580;2022-08-21T03:11:11;15.60;69.40
16797;DHT22;8515;51.064;4.580;2022-08-21T03:13:38;15.60;69.40
16797;DHT22;8515;51.064;4.580;2022-08-21T03:16:06;15.60;69.30
16797;DHT22;8515;51.064;4.580;2022-08-21T03:18:33;15.60;69.30
16797;DHT22;8515;51.064;4.580;2022-08-21T03:21:01;15.60;69.20
16797;DHT22;8515;51.064;4.580;2022-08-21T03:23:29;15.60;69.30
16797;DHT22;8515;51.064;4.580;2022-08-21T03:25:58;15.60;69.60
16797;DHT22;8515;51.064;4.580;2022-08-21T03:28:25;15.50;69.40
16797;DHT22;8515;51.064;4.580;2022-08-21T03:30:52;15.50;69.60
16797;DHT22;8515;51.064;4.580;2022-08-21T03:33:20;15.50;69.70
16797;DHT22;8515;51.064;4.580;2022-08-21T03:35:59;15.50;69.70
16797;DHT22;8515;51.064;4.580;2022-08-21T03:38:29;15.40;70.00
16797;DHT22;8515;51.064;4.580;2022-08-21T03:40:58;15.40;70.10
16797;DHT22;8515;51.064;4.580;2022-08-21T03:43:25;15.40;70.20
16797;DHT22;8515;51.064;4.580;2022-08-21T03:45:52;15.40;70.40
16797;DHT22;8515;51.064;4.580;2022-08-21T03:48:19;15.40;70.20
16797;DHT22;8515;51.064;4.580;2022-08-21T03:50:46;15.30;70.30
16797;DHT22;8515;51.064;4.580;2022-08-21T03:53:16;15.30;70.30
16797;DHT22;8515;51.064;4.580;2022-08-21T03:55:45;15.30;70.50
16797;DHT22;8515;51.064;4.580;2022-08-21T03:58:13;15.30;70.50
16797;DHT22;8515;51.064;4.580;2022-08-21T04:00:40;15.20;70.50
16797;DHT22;8515;51.064;4.580;2022-08-21T04:03:07;15.30;70.60
16797;DHT22;8515;51.064;4.580;2022-08-21T04:05:34;15.30;70.70
16797;DHT22;8515;51.064;4.580;2022-08-21T04:08:05;15.20;70.70
16797;DHT22;8515;51.064;4.580;2022-08-21T04:10:35;15.20;70.80
16797;DHT22;8515;51.064;4.580;2022-08-21T04:13:05;15.20;70.90
16797;DHT22;8515;51.064;4.580;2022-08-21T04:15:33;15.20;71.10
16797;DHT22;8515;51.064;4.580;2022-08-21T04:18:00;15.10;70.90
16797;DHT22;8515;51.064;4.580;2022-08-21T04:20:28;15.10;71.00
16797;DHT22;8515;51.064;4.580;2022-08-21T04:22:55;15.10;71.10
16797;DHT22;8515;51.064;4.580;2022-08-21T04:25:23;15.00;71.30
16797;DHT22;8515;51.064;4.580;2022-08-21T04:27:51;15.00;71.40
16797;DHT22;8515;51.064;4.580;2022-08-21T04:30:20;15.00;71.80
16797;DHT22;8515;51.064;4.580;2022-08-21T04:32:48;14.90;71.90
16797;DHT22;8515;51.064;4.580;2022-08-21T04:35:17;14.90;72.10
16797;DHT22;8515;51.064;4.580;2022-08-21T04:37:45;14.90;71.90
16797;DHT22;8515;51.064;4.580;2022-08-21T04:40:14;14.90;72.00
16797;DHT22;8515;51.064;4.580;2022-08-21T04:42:43;14.90;71.90
16797;DHT22;8515;51.064;4.580;2022-08-21T04:45:16;14.90;71.80
16797;DHT22;8515;51.064;4.580;2022-08-21T04:47:47;14.90;72.00
16797;DHT22;8515;51.064;4.580;2022-08-21T04:50:14;14.90;72.10
16797;DHT22;8515;51.064;4.580;2022-08-21T04:52:42;14.80;72.30
16797;DHT22;8515;51.064;4.580;2022-08-21T04:55:09;14.80;72.40
16797;DHT22;8515;51.064;4.580;2022-08-21T04:57:37;14.80;72.60
16797;DHT22;8515;51.064;4.580;2022-08-21T05:00:05;14.80;72.60
16797;DHT22;8515;51.064;4.580;2022-08-21T05:02:33;14.80;72.70
16797;DHT22;8515;51.064;4.580;2022-08-21T05:05:02;14.80;72.50
16797;DHT22;8515;51.064;4.580;2022-08-21T05:07:31;14.90;72.70
16797;DHT22;8515;51.064;4.580;2022-08-21T05:09:59;14.90;73.00
16797;DHT22;8515;51.064;4.580;2022-08-21T05:12:27;14.80;73.00
16797;DHT22;8515;51.064;4.580;2022-08-21T05:14:54;14.90;73.00
16797;DHT22;8515;51.064;4.580;2022-08-21T05:17:20;14.90;73.00
16797;DHT22;8515;51.064;4.580;2022-08-21T05:19:48;14.90;72.60
16797;DHT22;8515;51.064;4.580;2022-08-21T05:22:21;15.00;72.70
16797;DHT22;8515;51.064;4.580;2022-08-21T05:24:50;15.00;72.30
16797;DHT22;8515;51.064;4.580;2022-08-21T05:27:17;15.00;72.40
16797;DHT22;8515;51.064;4.580;2022-08-21T05:29:44;15.10;72.50
16797;DHT22;8515;51.064;4.580;2022-08-21T05:32:13;15.10;72.40
16797;DHT22;8515;51.064;4.580;2022-08-21T05:34:41;15.10;72.40
16797;DHT22;8515;51.064;4.580;2022-08-21T05:37:10;15.20;72.20
16797;DHT22;8515;51.064;4.580;2022-08-21T05:39:39;15.20;72.30
16797;DHT22;8515;51.064;4.580;2022-08-21T05:42:06;15.20;72.10
16797;DHT22;8515;51.064;4.580;2022-08-21T05:44:33;15.20;72.20
16797;DHT22;8515;51.064;4.580;2022-08-21T05:47:03;15.30;72.10
16797;DHT22;8515;51.064;4.580;2022-08-21T05:49:31;15.30;72.00
16797;DHT22;8515;51.064;4.580;2022-08-21T05:51:58;15.40;72.10
16797;DHT22;8515;51.064;4.580;2022-08-21T05:54:25;15.40;72.00
16797;DHT22;8515;51.064;4.580;2022-08-21T05:56:53;15.40;72.10
16797;DHT22;8515;51.064;4.580;2022-08-21T05:59:20;15.50;72.10
16797;DHT22;8515;51.064;4.580;2022-08-21T06:01:47;15.50;71.80
16797;DHT22;8515;51.064;4.580;2022-08-21T06:04:15;15.60;71.80
16797;DHT22;8515;51.064;4.580;2022-08-21T06:06:42;15.60;71.80
16797;DHT22;8515;51.064;4.580;2022-08-21T06:09:09;15.70;71.80
16797;DHT22;8515;51.064;4.580;2022-08-21T06:11:36;15.70;71.90
16797;DHT22;8515;51.064;4.580;2022-08-21T06:14:04;15.80;71.60
16797;DHT22;8515;51.064;4.580;2022-08-21T06:16:32;15.90;71.90
16797;DHT22;8515;51.064;4.580;2022-08-21T06:18:59;15.90;71.90
16797;DHT22;8515;51.064;4.580;2022-08-21T06:21:26;15.90;71.60
16797;DHT22;8515;51.064;4.580;2022-08-21T06:23:53;16.00;72.10
16797;DHT22;8515;51.064;4.580;2022-08-21T06:26:21;16.00;71.90
16797;DHT22;8515;51.064;4.580;2022-08-21T06:28:49;16.10;72.10
16797;DHT22;8515;51.064;4.580;2022-08-21T06:31:19;16.20;72.00
16797;DHT22;8515;51.064;4.580;2022-08-21T06:33:46;16.20;72.00
16797;DHT22;8515;51.064;4.580;2022-08-21T06:36:14;16.30;72.00
16797;DHT22;8515;51.064;4.580;2022-08-21T06:38:41;16.30;71.90
16797;DHT22;8515;51.064;4.580;2022-08-21T06:41:08;16.40;72.10
16797;DHT22;8515;51.064;4.580;2022-08-21T06:43:35;16.50;71.90
16797;DHT22;8515;51.064;4.580;2022-08-21T06:46:03;16.50;71.90
16797;DHT22;8515;51.064;4.580;2022-08-21T06:48:31;16.60;71.90
16797;DHT22;8515;51.064;4.580;2022-08-21T06:50:59;16.70;71.80
16797;DHT22;8515;51.064;4.580;2022-08-21T06:53:27;16.70;71.60
16797;DHT22;8515;51.064;4.580;2022-08-21T06:55:54;16.80;71.90
16797;DHT22;8515;51.064;4.580;2022-08-21T06:58:21;16.90;71.80
16797;DHT22;8515;51.064;4.580;2022-08-21T07:00:49;16.90;71.70
16797;DHT22;8515;51.064;4.580;2022-08-21T07:03:19;17.00;71.80
16797;DHT22;8515;51.064;4.580;2022-08-21T07:05:47;17.10;71.80
16797;DHT22;8515;51.064;4.580;2022-08-21T07:08:15;17.10;71.50
16797;DHT22;8515;51.064;4.580;2022-08-21T07:10:43;17.20;71.60
16797;DHT22;8515;51.064;4.580;2022-08-21T07:13:10;17.20;71.30
16797;DHT22;8515;51.064;4.580;2022-08-21T07:15:37;17.30;71.30
16797;DHT22;8515;51.064;4.580;2022-08-21T07:18:05;17.40;71.40
16797;DHT22;8515;51.064;4.580;2022-08-21T07:20:32;17.50;71.50
16797;DHT22;8515;51.064;4.580;2022-08-21T07:23:05;17.60;71.60
16797;DHT22;8515;51.064;4.580;2022-08-21T07:25:32;17.60;71.10
16797;DHT22;8515;51.064;4.580;2022-08-21T07:27:59;17.70;71.00
16797;DHT22;8515;51.064;4.580;2022-08-21T07:30:27;17.70;70.60
16797;DHT22;8515;51.064;4.580;2022-08-21T07:32:54;17.80;70.40
16797;DHT22;8515;51.064;4.580;2022-08-21T07:35:21;17.90;70.70
16797;DHT22;8515;51.064;4.580;2022-08-21T07:37:49;18.00;70.30
16797;DHT22;8515;51.064;4.580;2022-08-21T07:40:18;18.10;70.10
16797;DHT22;8515;51.064;4.580;2022-08-21T07:42:46;18.10;69.60
16797;DHT22;8515;51.064;4.580;2022-08-21T07:45:15;18.20;69.30
16797;DHT22;8515;51.064;4.580;2022-08-21T07:47:42;18.30;69.30
16797;DHT22;8515;51.064;4.580;2022-08-21T07:50:10;18.40;69.30
16797;DHT22;8515;51.064;4.580;2022-08-21T07:52:38;18.40;68.90
16797;DHT22;8515;51.064;4.580;2022-08-21T07:55:06;18.50;68.50
16797;DHT22;8515;51.064;4.580;2022-08-21T07:57:35;18.60;68.50
16797;DHT22;8515;51.064;4.580;2022-08-21T08:00:03;18.60;68.10
16797;DHT22;8515;51.064;4.580;2022-08-21T08:02:30;18.70;68.30
16797;DHT22;8515;51.064;4.580;2022-08-21T08:04:59;18.80;67.70
16797;DHT22;8515;51.064;4.580;2022-08-21T08:07:26;18.90;67.40
16797;DHT22;8515;51.064;4.580;2022-08-21T08:09:53;19.00;67.30
16797;DHT22;8515;51.064;4.580;2022-08-21T08:12:21;19.10;67.10
16797;DHT22;8515;51.064;4.580;2022-08-21T08:14:49;19.20;66.70
16797;DHT22;8515;51.064;4.580;2022-08-21T08:17:16;19.20;66.60
16797;DHT22;8515;51.064;4.580;2022-08-21T08:19:47;19.40;66.30
16797;DHT22;8515;51.064;4.580;2022-08-21T08:22:15;19.40;65.50
16797;DHT22;8515;51.064;4.580;2022-08-21T08:24:42;19.50;65.40
16797;DHT22;8515;51.064;4.580;2022-08-21T08:27:09;19.50;65.20
16797;DHT22;8515;51.064;4.580;2022-08-21T08:29:36;19.60;65.00
16797;DHT22;8515;51.064;4.580;2022-08-21T08:32:06;19.70;65.10
16797;DHT22;8515;51.064;4.580;2022-08-21T08:34:34;19.80;65.20
16797;DHT22;8515;51.064;4.580;2022-08-21T08:37:01;19.80;64.00
16797;DHT22;8515;51.064;4.580;2022-08-21T08:39:28;19.90;63.70
16797;DHT22;8515;51.064;4.580;2022-08-21T08:41:59;19.90;63.90
16797;DHT22;8515;51.064;4.580;2022-08-21T08:44:28;19.90;63.30
16797;DHT22;8515;51.064;4.580;2022-08-21T08:46:56;20.00;63.00
16797;DHT22;8515;51.064;4.580;2022-08-21T08:49:31;20.10;61.80
16797;DHT22;8515;51.064;4.580;2022-08-21T08:52:03;20.10;61.50
16797;DHT22;8515;51.064;4.580;2022-08-21T08:54:34;20.20;61.80
16797;DHT22;8515;51.064;4.580;2022-08-21T08:57:09;20.30;61.70
16797;DHT22;8515;51.064;4.580;2022-08-21T08:59:39;20.40;60.80
16797;DHT22;8515;51.064;4.580;2022-08-21T09:02:09;20.40;60.70
16797;DHT22;8515;51.064;4.580;2022-08-21T09:04:38;20.50;60.80
16797;DHT22;8515;51.064;4.580;2022-08-21T09:07:15;20.60;60.90
16797;DHT22;8515;51.064;4.580;2022-08-21T09:09:57;20.70;60.00
16797;DHT22;8515;51.064;4.580;2022-08-21T09:12:35;20.70;58.90
16797;DHT22;8515;51.064;4.580;2022-08-21T09:15:13;20.60;59.00
16797;DHT22;8515;51.064;4.580;2022-08-21T09:17:56;20.80;59.20
16797;DHT22;8515;51.064;4.580;2022-08-21T09:20:36;20.90;59.00
16797;DHT22;8515;51.064;4.580;2022-08-21T09:23:18;20.90;58.70
16797;DHT22;8515;51.064;4.580;2022-08-21T09:26:00;21.10;58.70
16797;DHT22;8515;51.064;4.580;2022-08-21T09:28:31;21.10;58.40
16797;DHT22;8515;51.064;4.580;2022-08-21T09:30:59;21.30;58.80
16797;DHT22;8515;51.064;4.580;2022-08-21T09:33:28;21.30;58.50
16797;DHT22;8515;51.064;4.580;2022-08-21T09:35:57;21.30;57.30
16797;DHT22;8515;51.064;4.580;2022-08-21T09:38:27;21.40;57.20
16797;DHT22;8515;51.064;4.580;2022-08-21T09:41:00;21.40;57.30
16797;DHT22;8515;51.064;4.580;2022-08-21T09:43:28;21.50;57.40
16797;DHT22;8515;51.064;4.580;2022-08-21T09:46:05;21.70;56.30
16797;DHT22;8515;51.064;4.580;2022-08-21T09:48:40;21.80;55.20
16797;DHT22;8515;51.064;4.580;2022-08-21T09:51:12;21.90;55.00
16797;DHT22;8515;51.064;4.580;2022-08-21T09:53:44;21.80;54.90
16797;DHT22;8515;51.064;4.580;2022-08-21T09:56:19;21.80;55.20
16797;DHT22;8515;51.064;4.580;2022-08-21T09:59:14;21.70;55.60
16797;DHT22;8515;51.064;4.580;2022-08-21T10:01:44;21.70;56.20
16797;DHT22;8515;51.064;4.580;2022-08-21T10:04:12;21.60;56.40
16797;DHT22;8515;51.064;4.580;2022-08-21T10:06:40;21.60;56.30
16797;DHT22;8515;51.064;4.580;2022-08-21T10:09:09;21.60;56.30
16797;DHT22;8515;51.064;4.580;2022-08-21T10:11:38;21.60;56.30
16797;DHT22;8515;51.064;4.580;2022-08-21T10:14:13;21.60;56.30
16797;DHT22;8515;51.064;4.580;2022-08-21T10:16:54;21.60;56.40
16797;DHT22;8515;51.064;4.580;2022-08-21T10:19:29;21.60;56.10
16797;DHT22;8515;51.064;4.580;2022-08-21T10:22:08;21.70;56.70
16797;DHT22;8515;51.064;4.580;2022-08-21T10:24:44;21.70;56.60
16797;DHT22;8515;51.064;4.580;2022-08-21T10:27:22;21.90;56.40
16797;DHT22;8515;51.064;4.580;2022-08-21T10:29:57;22.20;56.70
16797;DHT22;8515;51.064;4.580;2022-08-21T10:32:50;22.10;55.90
16797;DHT22;8515;51.064;4.580;2022-08-21T10:35:24;21.90;56.10
16797;DHT22;8515;51.064;4.580;2022-08-21T10:41:07;22.20;55.30
16797;DHT22;8515;51.064;4.580;2022-08-21T10:43:43;22.30;54.50
16797;DHT22;8515;51.064;4.580;2022-08-21T10:46:18;22.20;54.10
16797;DHT22;8515;51.064;4.580;2022-08-21T10:48:54;22.00;54.50
16797;DHT22;8515;51.064;4.580;2022-08-21T10:51:28;22.10;55.20
16797;DHT22;8515;51.064;4.580;2022-08-21T10:54:07;22.40;55.00
16797;DHT22;8515;51.064;4.580;2022-08-21T10:56:40;22.80;55.50
16797;DHT22;8515;51.064;4.580;2022-08-21T10:59:23;22.80;54.40
16797;DHT22;8515;51.064;4.580;2022-08-21T11:01:56;22.60;54.40
16797;DHT22;8515;51.064;4.580;2022-08-21T11:04:31;22.40;54.70
16797;DHT22;8515;51.064;4.580;2022-08-21T11:07:03;22.50;54.90
16797;DHT22;8515;51.064;4.580;2022-08-21T11:09:32;22.50;54.10
16797;DHT22;8515;51.064;4.580;2022-08-21T11:12:09;22.60;54.30
16797;DHT22;8515;51.064;4.580;2022-08-21T11:14:44;22.60;54.20
16797;DHT22;8515;51.064;4.580;2022-08-21T11:17:14;22.70;54.30
16797;DHT22;8515;51.064;4.580;2022-08-21T11:19:48;22.80;53.90
16797;DHT22;8515;51.064;4.580;2022-08-21T11:22:21;22.80;53.90
16797;DHT22;8515;51.064;4.580;2022-08-21T11:24:57;22.70;53.50
16797;DHT22;8515;51.064;4.580;2022-08-21T11:27:32;22.80;53.40
16797;DHT22;8515;51.064;4.580;2022-08-21T11:30:01;22.60;53.80
16797;DHT22;8515;51.064;4.580;2022-08-21T11:35:28;22.70;53.70
16797;DHT22;8515;51.064;4.580;2022-08-21T11:38:05;22.70;53.30
16797;DHT22;8515;51.064;4.580;2022-08-21T11:43:36;22.60;53.40
16797;DHT22;8515;51.064;4.580;2022-08-21T11:46:14;22.60;53.80
16797;DHT22;8515;51.064;4.580;2022-08-21T11:48:52;23.10;53.00
16797;DHT22;8515;51.064;4.580;2022-08-21T11:51:30;23.40;52.60
16797;DHT22;8515;51.064;4.580;2022-08-21T11:54:03;23.40;52.80
16797;DHT22;8515;51.064;4.580;2022-08-21T11:56:35;23.60;52.60
16797;DHT22;8515;51.064;4.580;2022-08-21T11:59:11;23.70;52.10
16797;DHT22;8515;51.064;4.580;2022-08-21T12:01:43;23.90;51.30
16797;DHT22;8515;51.064;4.580;2022-08-21T12:04:22;23.90;50.70
16797;DHT22;8515;51.064;4.580;2022-08-21T12:06:51;24.10;50.80
16797;DHT22;8515;51.064;4.580;2022-08-21T12:09:31;24.40;48.60
16797;DHT22;8515;51.064;4.580;2022-08-21T12:12:05;24.60;47.50
16797;DHT22;8515;51.064;4.580;2022-08-21T12:14:39;24.60;48.90
16797;DHT22;8515;51.064;4.580;2022-08-21T12:17:08;24.80;49.00
16797;DHT22;8515;51.064;4.580;2022-08-21T12:19:43;25.00;49.00
16797;DHT22;8515;51.064;4.580;2022-08-21T12:22:12;25.00;49.20
16797;DHT22;8515;51.064;4.580;2022-08-21T12:24:41;24.80;48.80
16797;DHT22;8515;51.064;4.580;2022-08-21T12:27:27;24.70;48.10
16797;DHT22;8515;51.064;4.580;2022-08-21T12:30:02;24.70;46.50
16797;DHT22;8515;51.064;4.580;2022-08-21T12:32:42;24.70;46.80
16797;DHT22;8515;51.064;4.580;2022-08-21T12:35:16;24.80;48.20
16797;DHT22;8515;51.064;4.580;2022-08-21T12:37:47;24.60;48.80
16797;DHT22;8515;51.064;4.580;2022-08-21T12:40:20;24.40;49.10
16797;DHT22;8515;51.064;4.580;2022-08-21T12:42:50;24.50;49.10
16797;DHT22;8515;51.064;4.580;2022-08-21T12:45:23;24.70;49.10
16797;DHT22;8515;51.064;4.580;2022-08-21T12:47:57;24.90;48.40
16797;DHT22;8515;51.064;4.580;2022-08-21T12:50:35;24.90;47.80
16797;DHT22;8515;51.064;4.580;2022-08-21T12:53:07;24.80;47.70
16797;DHT22;8515;51.064;4.580;2022-08-21T12:55:40;24.50;48.30
16797;DHT22;8515;51.064;4.580;2022-08-21T12:58:17;24.50;48.80
16797;DHT22;8515;51.064;4.580;2022-08-21T13:00:49;24.80;48.60
16797;DHT22;8515;51.064;4.580;2022-08-21T13:03:18;24.80;47.30
16797;DHT22;8515;51.064;4.580;2022-08-21T13:05:45;24.70;47.00
16797;DHT22;8515;51.064;4.580;2022-08-21T13:08:13;24.70;47.50
16797;DHT22;8515;51.064;4.580;2022-08-21T13:10:41;24.80;46.90
16797;DHT22;8515;51.064;4.580;2022-08-21T13:13:24;24.70;47.00
16797;DHT22;8515;51.064;4.580;2022-08-21T13:15:57;24.60;47.00
16797;DHT22;8515;51.064;4.580;2022-08-21T13:18:29;25.00;48.00
16797;DHT22;8515;51.064;4.580;2022-08-21T13:21:06;25.40;46.60
16797;DHT22;8515;51.064;4.580;2022-08-21T13:23:34;25.30;46.00
16797;DHT22;8515;51.064;4.580;2022-08-21T13:26:02;25.10;46.40
16797;DHT22;8515;51.064;4.580;2022-08-21T13:28:38;24.80;46.50
16797;DHT22;8515;51.064;4.580;2022-08-21T13:31:08;24.70;46.60
16797;DHT22;8515;51.064;4.580;2022-08-21T13:33:38;24.60;46.90
16797;DHT22;8515;51.064;4.580;2022-08-21T13:36:09;24.50;47.10
16797;DHT22;8515;51.064;4.580;2022-08-21T13:38:40;24.50;47.30
16797;DHT22;8515;51.064;4.580;2022-08-21T13:41:16;24.60;47.00
16797;DHT22;8515;51.064;4.580;2022-08-21T13:43:46;25.00;46.30
16797;DHT22;8515;51.064;4.580;2022-08-21T13:46:17;25.30;45.40
16797;DHT22;8515;51.064;4.580;2022-08-21T13:48:44;24.90;45.10
16797;DHT22;8515;51.064;4.580;2022-08-21T13:51:12;24.70;45.20
16797;DHT22;8515;51.064;4.580;2022-08-21T13:53:45;24.80;46.10
16797;DHT22;8515;51.064;4.580;2022-08-21T13:56:23;25.10;46.30
16797;DHT22;8515;51.064;4.580;2022-08-21T13:58:51;25.00;46.10
16797;DHT22;8515;51.064;4.580;2022-08-21T14:01:23;24.90;46.60
16797;DHT22;8515;51.064;4.580;2022-08-21T14:03:53;24.90;46.90
16797;DHT22;8515;51.064;4.580;2022-08-21T14:06:26;24.80;46.70
16797;DHT22;8515;51.064;4.580;2022-08-21T14:08:55;24.80;46.70
16797;DHT22;8515;51.064;4.580;2022-08-21T14:11:22;24.90;46.00
16797;DHT22;8515;51.064;4.580;2022-08-21T14:13:56;25.00;46.20
16797;DHT22;8515;51.064;4.580;2022-08-21T14:16:28;25.10;46.00
16797;DHT22;8515;51.064;4.580;2022-08-21T14:19:09;25.00;45.70
16797;DHT22;8515;51.064;4.580;2022-08-21T14:21:40;24.80;45.20
16797;DHT22;8515;51.064;4.580;2022-08-21T14:24:11;25.20;44.80
16797;DHT22;8515;51.064;4.580;2022-08-21T14:26:46;25.70;44.10
16797;DHT22;8515;51.064;4.580;2022-08-21T14:29:16;25.60;43.90
16797;DHT22;8515;51.064;4.580;2022-08-21T14:31:50;25.30;43.80
16797;DHT22;8515;51.064;4.580;2022-08-21T14:34:18;25.00;44.20
16797;DHT22;8515;51.064;4.580;2022-08-21T14:36:45;24.80;45.60
16797;DHT22;8515;51.064;4.580;2022-08-21T14:39:12;24.80;45.80
16797;DHT22;8515;51.064;4.580;2022-08-21T14:41:39;25.20;45.30
16797;DHT22;8515;51.064;4.580;2022-08-21T14:44:08;25.40;44.50
16797;DHT22;8515;51.064;4.580;2022-08-21T14:46:36;25.20;43.50
16797;DHT22;8515;51.064;4.580;2022-08-21T14:49:04;24.90;42.90
16797;DHT22;8515;51.064;4.580;2022-08-21T14:51:31;24.70;42.80
16797;DHT22;8515;51.064;4.580;2022-08-21T14:53:59;24.60;42.80
16797;DHT22;8515;51.064;4.580;2022-08-21T14:56:26;24.50;42.60
16797;DHT22;8515;51.064;4.580;2022-08-21T14:58:53;24.50;43.50
16797;DHT22;8515;51.064;4.580;2022-08-21T15:01:21;24.40;44.40
16797;DHT22;8515;51.064;4.580;2022-08-21T15:03:49;24.30;45.00
16797;DHT22;8515;51.064;4.580;2022-08-21T15:06:18;24.30;45.80
16797;DHT22;8515;51.064;4.580;2022-08-21T15:08:46;24.10;46.40
16797;DHT22;8515;51.064;4.580;2022-08-21T15:11:17;24.10;46.50
16797;DHT22;8515;51.064;4.580;2022-08-21T15:13:44;24.10;45.60
16797;DHT22;8515;51.064;4.580;2022-08-21T15:16:12;24.20;45.50
16797;DHT22;8515;51.064;4.580;2022-08-21T15:18:40;24.30;45.70
16797;DHT22;8515;51.064;4.580;2022-08-21T15:21:08;24.40;45.60
16797;DHT22;8515;51.064;4.580;2022-08-21T15:23:36;24.50;45.20
16797;DHT22;8515;51.064;4.580;2022-08-21T15:26:04;24.60;45.60
16797;DHT22;8515;51.064;4.580;2022-08-21T15:28:31;24.60;45.10
16797;DHT22;8515;51.064;4.580;2022-08-21T15:31:00;24.60;45.00
16797;DHT22;8515;51.064;4.580;2022-08-21T15:33:27;24.60;45.50
16797;DHT22;8515;51.064;4.580;2022-08-21T15:35:54;24.50;45.60
16797;DHT22;8515;51.064;4.580;2022-08-21T15:38:21;24.50;45.40
16797;DHT22;8515;51.064;4.580;2022-08-21T15:40:50;24.40;45.10
16797;DHT22;8515;51.064;4.580;2022-08-21T15:43:22;24.40;45.50
16797;DHT22;8515;51.064;4.580;2022-08-21T15:45:50;24.30;45.00
16797;DHT22;8515;51.064;4.580;2022-08-21T15:48:17;24.20;45.00
16797;DHT22;8515;51.064;4.580;2022-08-21T15:50:44;24.20;45.10
16797;DHT22;8515;51.064;4.580;2022-08-21T15:53:11;24.20;45.50
16797;DHT22;8515;51.064;4.580;2022-08-21T15:55:39;24.20;45.80
16797;DHT22;8515;51.064;4.580;2022-08-21T15:58:12;24.20;45.90
16797;DHT22;8515;51.064;4.580;2022-08-21T16:00:40;24.10;45.50
16797;DHT22;8515;51.064;4.580;2022-08-21T16:03:11;24.10;46.40
16797;DHT22;8515;51.064;4.580;2022-08-21T16:05:40;24.00;46.00
16797;DHT22;8515;51.064;4.580;2022-08-21T16:08:08;23.90;46.30
16797;DHT22;8515;51.064;4.580;2022-08-21T16:10:35;23.90;46.60